Terminal Aerodrome Forecast
Issued by NWS

Current Version | Previous Version | Text Only | Print | Product List | Glossary On
Versions: 1 2 3 4 5 6 7 8 9 10 11 12 13 14
000
FTUS43 KAPX 120500
TAFPLN
TAF
KPLN 120527Z 1206/1306 20004KT P6SM SCT050 BKN080
     FM121300 22006KT P6SM BKN040
     FM121600 24008KT P6SM VCSH BKN040
     FM122200 28006KT P6SM VCSH OVC035
     FM130200 VRB03KT P6SM VCSH OVC035=

USA.gov is the U.S. government's official web portal to all federal, state and local government web resources and services.